sensor_id;sensor_type;location;lat;lon;timestamp;pressure;altitude;pressure_sealevel;temperature
22828;BMP180;11580;52.562;13.418;2024-03-25T00:01:05;98840.00;;;11.50
22828;BMP180;11580;52.562;13.418;2024-03-25T00:03:32;98850.00;;;11.50
22828;BMP180;11580;52.562;13.418;2024-03-25T00:05:58;98850.00;;;11.50
22828;BMP180;11580;52.562;13.418;2024-03-25T00:08:25;98848.00;;;11.40
22828;BMP180;11580;52.562;13.418;2024-03-25T00:10:53;98853.00;;;11.40
22828;BMP180;11580;52.562;13.418;2024-03-25T00:13:21;98850.00;;;11.40
22828;BMP180;11580;52.562;13.418;2024-03-25T00:15:47;98853.00;;;11.40
22828;BMP180;11580;52.562;13.418;2024-03-25T00:18:14;98845.00;;;11.40
22828;BMP180;11580;52.562;13.418;2024-03-25T00:20:40;98852.00;;;11.30
22828;BMP180;11580;52.562;13.418;2024-03-25T00:23:07;98854.00;;;11.30
22828;BMP180;11580;52.562;13.418;2024-03-25T00:25:33;98846.00;;;11.30
22828;BMP180;11580;52.562;13.418;2024-03-25T00:28:01;98861.00;;;11.20
22828;BMP180;11580;52.562;13.418;2024-03-25T00:30:28;98859.00;;;11.20
22828;BMP180;11580;52.562;13.418;2024-03-25T00:32:55;98870.00;;;11.10
22828;BMP180;11580;52.562;13.418;2024-03-25T00:35:21;98873.00;;;11.10
22828;BMP180;11580;52.562;13.418;2024-03-25T00:37:49;98872.00;;;11.10
22828;BMP180;11580;52.562;13.418;2024-03-25T00:40:15;98874.00;;;11.00
22828;BMP180;11580;52.562;13.418;2024-03-25T00:42:42;98871.00;;;11.00
22828;BMP180;11580;52.562;13.418;2024-03-25T00:45:09;98877.00;;;11.00
22828;BMP180;11580;52.562;13.418;2024-03-25T00:47:37;98872.00;;;11.00
22828;BMP180;11580;52.562;13.418;2024-03-25T00:50:04;98875.00;;;11.00
22828;BMP180;11580;52.562;13.418;2024-03-25T00:52:31;98882.00;;;11.00
22828;BMP180;11580;52.562;13.418;2024-03-25T00:54:57;98878.00;;;11.10
22828;BMP180;11580;52.562;13.418;2024-03-25T00:57:24;98877.00;;;11.10
22828;BMP180;11580;52.562;13.418;2024-03-25T00:59:50;98885.00;;;11.10
22828;BMP180;11580;52.562;13.418;2024-03-25T01:02:18;98876.00;;;11.10
22828;BMP180;11580;52.562;13.418;2024-03-25T01:04:44;98884.00;;;11.10
22828;BMP180;11580;52.562;13.418;2024-03-25T01:07:11;98879.00;;;11.10
22828;BMP180;11580;52.562;13.418;2024-03-25T01:09:37;98885.00;;;11.20
22828;BMP180;11580;52.562;13.418;2024-03-25T01:12:05;98883.00;;;11.20
22828;BMP180;11580;52.562;13.418;2024-03-25T01:14:31;98899.00;;;11.20
22828;BMP180;11580;52.562;13.418;2024-03-25T01:16:58;98889.00;;;11.20
22828;BMP180;11580;52.562;13.418;2024-03-25T01:19:25;98886.00;;;11.30
22828;BMP180;11580;52.562;13.418;2024-03-25T01:21:52;98889.00;;;11.30
22828;BMP180;11580;52.562;13.418;2024-03-25T01:24:18;98892.00;;;11.30
22828;BMP180;11580;52.562;13.418;2024-03-25T01:26:45;98891.00;;;11.30
22828;BMP180;11580;52.562;13.418;2024-03-25T01:29:11;98898.00;;;11.30
22828;BMP180;11580;52.562;13.418;2024-03-25T01:31:39;98895.00;;;11.30
22828;BMP180;11580;52.562;13.418;2024-03-25T01:34:05;98899.00;;;11.30
22828;BMP180;11580;52.562;13.418;2024-03-25T01:36:33;98910.00;;;11.40
22828;BMP180;11580;52.562;13.418;2024-03-25T01:39:01;98904.00;;;11.40
22828;BMP180;11580;52.562;13.418;2024-03-25T01:41:28;98899.00;;;11.40
22828;BMP180;11580;52.562;13.418;2024-03-25T01:43:55;98902.00;;;11.40
22828;BMP180;11580;52.562;13.418;2024-03-25T01:46:22;98907.00;;;11.40
22828;BMP180;11580;52.562;13.418;2024-03-25T01:48:50;98909.00;;;11.40
22828;BMP180;11580;52.562;13.418;2024-03-25T01:51:21;98914.00;;;11.40
22828;BMP180;11580;52.562;13.418;2024-03-25T01:53:53;98918.00;;;11.40
22828;BMP180;11580;52.562;13.418;2024-03-25T01:56:23;98913.00;;;11.40
22828;BMP180;11580;52.562;13.418;2024-03-25T01:58:50;98917.00;;;11.40
22828;BMP180;11580;52.562;13.418;2024-03-25T02:01:18;98917.00;;;11.40
22828;BMP180;11580;52.562;13.418;2024-03-25T02:03:45;98920.00;;;11.40
22828;BMP180;11580;52.562;13.418;2024-03-25T02:06:17;98920.00;;;11.40
22828;BMP180;11580;52.562;13.418;2024-03-25T02:08:44;98898.00;;;11.40
22828;BMP180;11580;52.562;13.418;2024-03-25T02:11:13;98922.00;;;11.40
22828;BMP180;11580;52.562;13.418;2024-03-25T02:13:40;98926.00;;;11.40
22828;BMP180;11580;52.562;13.418;2024-03-25T02:16:07;98930.00;;;11.40
22828;BMP180;11580;52.562;13.418;2024-03-25T02:18:34;98939.00;;;11.30
22828;BMP180;11580;52.562;13.418;2024-03-25T02:21:01;98937.00;;;11.20
22828;BMP180;11580;52.562;13.418;2024-03-25T02:23:27;98938.00;;;11.20
22828;BMP180;11580;52.562;13.418;2024-03-25T02:25:55;98946.00;;;11.10
22828;BMP180;11580;52.562;13.418;2024-03-25T02:28:22;98962.00;;;11.00
22828;BMP180;11580;52.562;13.418;2024-03-25T02:30:49;98956.00;;;10.90
22828;BMP180;11580;52.562;13.418;2024-03-25T02:33:15;98949.00;;;10.80
22828;BMP180;11580;52.562;13.418;2024-03-25T02:35:43;98945.00;;;10.70
22828;BMP180;11580;52.562;13.418;2024-03-25T02:38:10;98958.00;;;10.60
22828;BMP180;11580;52.562;13.418;2024-03-25T02:40:38;98961.00;;;10.50
22828;BMP180;11580;52.562;13.418;2024-03-25T02:43:05;98963.00;;;10.40
22828;BMP180;11580;52.562;13.418;2024-03-25T02:45:34;98965.00;;;10.30
22828;BMP180;11580;52.562;13.418;2024-03-25T02:48:00;98963.00;;;10.20
22828;BMP180;11580;52.562;13.418;2024-03-25T02:50:26;98967.00;;;10.20
22828;BMP180;11580;52.562;13.418;2024-03-25T02:52:53;98966.00;;;10.10
22828;BMP180;11580;52.562;13.418;2024-03-25T02:55:20;98966.00;;;10.10
22828;BMP180;11580;52.562;13.418;2024-03-25T02:57:46;98972.00;;;10.00
22828;BMP180;11580;52.562;13.418;2024-03-25T03:00:14;98971.00;;;10.00
22828;BMP180;11580;52.562;13.418;2024-03-25T03:02:40;98980.00;;;10.00
22828;BMP180;11580;52.562;13.418;2024-03-25T03:05:08;98981.00;;;9.90
22828;BMP180;11580;52.562;13.418;2024-03-25T03:07:34;98989.00;;;9.90
22828;BMP180;11580;52.562;13.418;2024-03-25T03:10:01;98984.00;;;9.90
22828;BMP180;11580;52.562;13.418;2024-03-25T03:12:27;98989.00;;;9.90
22828;BMP180;11580;52.562;13.418;2024-03-25T03:14:54;98991.00;;;9.90
22828;BMP180;11580;52.562;13.418;2024-03-25T03:17:21;99001.00;;;9.90
22828;BMP180;11580;52.562;13.418;2024-03-25T03:19:48;98994.00;;;9.90
22828;BMP180;11580;52.562;13.418;2024-03-25T03:22:16;99000.00;;;9.90
22828;BMP180;11580;52.562;13.418;2024-03-25T03:24:42;98994.00;;;9.90
22828;BMP180;11580;52.562;13.418;2024-03-25T03:27:09;99009.00;;;10.00
22828;BMP180;11580;52.562;13.418;2024-03-25T03:29:35;99005.00;;;10.00
22828;BMP180;11580;52.562;13.418;2024-03-25T03:32:02;99004.00;;;10.00
22828;BMP180;11580;52.562;13.418;2024-03-25T03:34:29;99002.00;;;10.10
22828;BMP180;11580;52.562;13.418;2024-03-25T03:36:56;99007.00;;;10.10
22828;BMP180;11580;52.562;13.418;2024-03-25T03:39:22;99019.00;;;10.10
22828;BMP180;11580;52.562;13.418;2024-03-25T03:41:49;98981.00;;;10.10
22828;BMP180;11580;52.562;13.418;2024-03-25T03:44:15;99023.00;;;10.10
22828;BMP180;11580;52.562;13.418;2024-03-25T03:46:43;99034.00;;;10.20
22828;BMP180;11580;52.562;13.418;2024-03-25T03:49:08;99030.00;;;10.20
22828;BMP180;11580;52.562;13.418;2024-03-25T03:51:37;99040.00;;;10.20
22828;BMP180;11580;52.562;13.418;2024-03-25T03:54:03;99041.00;;;10.20
22828;BMP180;11580;52.562;13.418;2024-03-25T03:56:30;99044.00;;;10.30
22828;BMP180;11580;52.562;13.418;2024-03-25T03:58:56;99049.00;;;10.30
22828;BMP180;11580;52.562;13.418;2024-03-25T04:01:23;99044.00;;;10.30
22828;BMP180;11580;52.562;13.418;2024-03-25T04:03:49;99056.00;;;10.30
22828;BMP180;11580;52.562;13.418;2024-03-25T04:06:16;99055.00;;;10.30
22828;BMP180;11580;52.562;13.418;2024-03-25T04:08:43;99059.00;;;10.30
22828;BMP180;11580;52.562;13.418;2024-03-25T04:11:10;99037.00;;;10.30
22828;BMP180;11580;52.562;13.418;2024-03-25T04:13:36;99063.00;;;10.30
22828;BMP180;11580;52.562;13.418;2024-03-25T04:16:06;99033.00;;;10.30
22828;BMP180;11580;52.562;13.418;2024-03-25T04:18:33;99069.00;;;10.30
22828;BMP180;11580;52.562;13.418;2024-03-25T04:21:00;99066.00;;;10.30
22828;BMP180;11580;52.562;13.418;2024-03-25T04:23:26;99085.00;;;10.30
22828;BMP180;11580;52.562;13.418;2024-03-25T04:25:55;99071.00;;;10.20
22828;BMP180;11580;52.562;13.418;2024-03-25T04:28:21;99079.00;;;10.20
22828;BMP180;11580;52.562;13.418;2024-03-25T04:30:53;99083.00;;;10.20
22828;BMP180;11580;52.562;13.418;2024-03-25T04:33:19;99081.00;;;10.20
22828;BMP180;11580;52.562;13.418;2024-03-25T04:35:46;99086.00;;;10.20
22828;BMP180;11580;52.562;13.418;2024-03-25T04:38:13;99088.00;;;10.20
22828;BMP180;11580;52.562;13.418;2024-03-25T04:40:39;99096.00;;;10.20
22828;BMP180;11580;52.562;13.418;2024-03-25T04:43:07;99107.00;;;10.20
22828;BMP180;11580;52.562;13.418;2024-03-25T04:45:33;99106.00;;;10.20
22828;BMP180;11580;52.562;13.418;2024-03-25T04:47:59;99100.00;;;10.20
22828;BMP180;11580;52.562;13.418;2024-03-25T04:50:25;99101.00;;;10.30
22828;BMP180;11580;52.562;13.418;2024-03-25T04:52:52;99113.00;;;10.20
22828;BMP180;11580;52.562;13.418;2024-03-25T04:55:18;99114.00;;;10.30
22828;BMP180;11580;52.562;13.418;2024-03-25T04:57:44;99118.00;;;10.30
22828;BMP180;11580;52.562;13.418;2024-03-25T05:00:13;99112.00;;;10.30
22828;BMP180;11580;52.562;13.418;2024-03-25T05:02:39;99120.00;;;10.30
22828;BMP180;11580;52.562;13.418;2024-03-25T05:05:06;99119.00;;;10.30
22828;BMP180;11580;52.562;13.418;2024-03-25T05:07:33;99127.00;;;10.30
22828;BMP180;11580;52.562;13.418;2024-03-25T05:09:59;99128.00;;;10.30
22828;BMP180;11580;52.562;13.418;2024-03-25T05:12:25;99132.00;;;10.30
22828;BMP180;11580;52.562;13.418;2024-03-25T05:14:51;99139.00;;;10.30
22828;BMP180;11580;52.562;13.418;2024-03-25T05:17:19;99146.00;;;10.30
22828;BMP180;11580;52.562;13.418;2024-03-25T05:19:45;99147.00;;;10.40
22828;BMP180;11580;52.562;13.418;2024-03-25T05:22:11;99155.00;;;10.40
22828;BMP180;11580;52.562;13.418;2024-03-25T05:24:37;99161.00;;;10.40
22828;BMP180;11580;52.562;13.418;2024-03-25T05:27:03;99153.00;;;10.50
22828;BMP180;11580;52.562;13.418;2024-03-25T05:29:29;99158.00;;;10.50
22828;BMP180;11580;52.562;13.418;2024-03-25T05:31:57;99154.00;;;10.50
22828;BMP180;11580;52.562;13.418;2024-03-25T05:34:26;99161.00;;;10.60
22828;BMP180;11580;52.562;13.418;2024-03-25T05:36:52;99173.00;;;10.60
22828;BMP180;11580;52.562;13.418;2024-03-25T05:39:19;99182.00;;;10.70
22828;BMP180;11580;52.562;13.418;2024-03-25T05:41:45;99173.00;;;10.70
22828;BMP180;11580;52.562;13.418;2024-03-25T05:44:11;99169.00;;;10.70
22828;BMP180;11580;52.562;13.418;2024-03-25T05:46:39;99175.00;;;10.70
22828;BMP180;11580;52.562;13.418;2024-03-25T05:49:05;99183.00;;;10.70
22828;BMP180;11580;52.562;13.418;2024-03-25T05:51:33;99192.00;;;10.80
22828;BMP180;11580;52.562;13.418;2024-03-25T05:54:00;99200.00;;;10.80
22828;BMP180;11580;52.562;13.418;2024-03-25T05:56:26;99203.00;;;10.80
22828;BMP180;11580;52.562;13.418;2024-03-25T05:58:53;99196.00;;;10.80
22828;BMP180;11580;52.562;13.418;2024-03-25T06:01:19;99192.00;;;10.80
22828;BMP180;11580;52.562;13.418;2024-03-25T06:03:45;99198.00;;;10.80
22828;BMP180;11580;52.562;13.418;2024-03-25T06:06:13;99201.00;;;10.80
22828;BMP180;11580;52.562;13.418;2024-03-25T06:08:41;99210.00;;;10.80
22828;BMP180;11580;52.562;13.418;2024-03-25T06:11:07;99217.00;;;10.80
22828;BMP180;11580;52.562;13.418;2024-03-25T06:13:33;99213.00;;;10.80
22828;BMP180;11580;52.562;13.418;2024-03-25T06:15:59;99218.00;;;10.70
22828;BMP180;11580;52.562;13.418;2024-03-25T06:18:25;99213.00;;;10.70
22828;BMP180;11580;52.562;13.418;2024-03-25T06:20:51;99219.00;;;10.70
22828;BMP180;11580;52.562;13.418;2024-03-25T06:23:24;99223.00;;;10.70
22828;BMP180;11580;52.562;13.418;2024-03-25T06:25:54;99226.00;;;10.80
22828;BMP180;11580;52.562;13.418;2024-03-25T06:28:20;99237.00;;;10.80
22828;BMP180;11580;52.562;13.418;2024-03-25T06:30:47;99244.00;;;10.80
22828;BMP180;11580;52.562;13.418;2024-03-25T06:33:32;99239.00;;;10.80
22828;BMP180;11580;52.562;13.418;2024-03-25T06:36:17;99243.00;;;10.70
22828;BMP180;11580;52.562;13.418;2024-03-25T06:38:44;99250.00;;;10.80
22828;BMP180;11580;52.562;13.418;2024-03-25T06:41:12;99253.00;;;10.70
22828;BMP180;11580;52.562;13.418;2024-03-25T06:43:38;99254.00;;;10.80
22828;BMP180;11580;52.562;13.418;2024-03-25T06:46:04;99259.00;;;10.80
22828;BMP180;11580;52.562;13.418;2024-03-25T06:48:31;99257.00;;;10.80
22828;BMP180;11580;52.562;13.418;2024-03-25T06:50:58;99265.00;;;10.80
22828;BMP180;11580;52.562;13.418;2024-03-25T06:53:25;99270.00;;;10.90
22828;BMP180;11580;52.562;13.418;2024-03-25T06:55:53;99261.00;;;10.90
22828;BMP180;11580;52.562;13.418;2024-03-25T06:58:22;99288.00;;;10.90
22828;BMP180;11580;52.562;13.418;2024-03-25T07:00:49;99288.00;;;11.00
22828;BMP180;11580;52.562;13.418;2024-03-25T07:03:16;99289.00;;;11.00
22828;BMP180;11580;52.562;13.418;2024-03-25T07:05:44;99297.00;;;11.00
22828;BMP180;11580;52.562;13.418;2024-03-25T07:08:10;99306.00;;;11.10
22828;BMP180;11580;52.562;13.418;2024-03-25T07:10:36;99312.00;;;11.10
22828;BMP180;11580;52.562;13.418;2024-03-25T07:13:03;99315.00;;;11.10
22828;BMP180;11580;52.562;13.418;2024-03-25T07:15:30;99326.00;;;11.10
22828;BMP180;11580;52.562;13.418;2024-03-25T07:17:56;99334.00;;;11.10
22828;BMP180;11580;52.562;13.418;2024-03-25T07:20:23;99330.00;;;11.10
22828;BMP180;11580;52.562;13.418;2024-03-25T07:22:49;99330.00;;;11.10
22828;BMP180;11580;52.562;13.418;2024-03-25T07:25:15;99338.00;;;11.20
22828;BMP180;11580;52.562;13.418;2024-03-25T07:27:41;99336.00;;;11.20
22828;BMP180;11580;52.562;13.418;2024-03-25T07:30:08;99340.00;;;11.20
22828;BMP180;11580;52.562;13.418;2024-03-25T07:32:35;99348.00;;;11.20
22828;BMP180;11580;52.562;13.418;2024-03-25T07:35:02;99349.00;;;11.20
22828;BMP180;11580;52.562;13.418;2024-03-25T07:37:28;99343.00;;;11.20
22828;BMP180;11580;52.562;13.418;2024-03-25T07:39:54;99354.00;;;11.30
22828;BMP180;11580;52.562;13.418;2024-03-25T07:42:21;99318.00;;;11.30
22828;BMP180;11580;52.562;13.418;2024-03-25T07:44:47;99349.00;;;11.30
22828;BMP180;11580;52.562;13.418;2024-03-25T07:47:13;99358.00;;;11.40
22828;BMP180;11580;52.562;13.418;2024-03-25T07:49:40;99371.00;;;11.30
22828;BMP180;11580;52.562;13.418;2024-03-25T07:52:07;99362.00;;;11.40
22828;BMP180;11580;52.562;13.418;2024-03-25T07:54:33;99368.00;;;11.40
22828;BMP180;11580;52.562;13.418;2024-03-25T07:56:59;99369.00;;;11.40
22828;BMP180;11580;52.562;13.418;2024-03-25T07:59:25;99378.00;;;11.40
22828;BMP180;11580;52.562;13.418;2024-03-25T08:01:51;99362.00;;;11.40
22828;BMP180;11580;52.562;13.418;2024-03-25T08:04:18;99374.00;;;11.30
22828;BMP180;11580;52.562;13.418;2024-03-25T08:06:45;99376.00;;;11.30
22828;BMP180;11580;52.562;13.418;2024-03-25T08:09:11;99390.00;;;11.30
22828;BMP180;11580;52.562;13.418;2024-03-25T08:11:37;99394.00;;;11.30
22828;BMP180;11580;52.562;13.418;2024-03-25T08:14:04;99394.00;;;11.20
22828;BMP180;11580;52.562;13.418;2024-03-25T08:16:30;99396.00;;;11.20
22828;BMP180;11580;52.562;13.418;2024-03-25T08:18:56;99392.00;;;11.20
22828;BMP180;11580;52.562;13.418;2024-03-25T08:21:23;99392.00;;;11.20
22828;BMP180;11580;52.562;13.418;2024-03-25T08:23:50;99397.00;;;11.20
22828;BMP180;11580;52.562;13.418;2024-03-25T08:26:17;99397.00;;;11.20
22828;BMP180;11580;52.562;13.418;2024-03-25T08:28:43;99405.00;;;11.20
22828;BMP180;11580;52.562;13.418;2024-03-25T08:31:10;99411.00;;;11.40
22828;BMP180;11580;52.562;13.418;2024-03-25T08:33:36;99404.00;;;11.40
22828;BMP180;11580;52.562;13.418;2024-03-25T08:36:02;99413.00;;;11.60
22828;BMP180;11580;52.562;13.418;2024-03-25T08:38:29;99420.00;;;11.70
22828;BMP180;11580;52.562;13.418;2024-03-25T08:40:56;99425.00;;;11.80
22828;BMP180;11580;52.562;13.418;2024-03-25T08:43:23;99436.00;;;11.80
22828;BMP180;11580;52.562;13.418;2024-03-25T08:45:49;99438.00;;;11.80
22828;BMP180;11580;52.562;13.418;2024-03-25T08:48:15;99436.00;;;11.90
22828;BMP180;11580;52.562;13.418;2024-03-25T08:50:41;99432.00;;;11.90
22828;BMP180;11580;52.562;13.418;2024-03-25T08:53:07;99449.00;;;11.90
22828;BMP180;11580;52.562;13.418;2024-03-25T08:55:33;99453.00;;;12.00
22828;BMP180;11580;52.562;13.418;2024-03-25T08:58:00;99449.00;;;12.00
22828;BMP180;11580;52.562;13.418;2024-03-25T09:00:27;99460.00;;;12.00
22828;BMP180;11580;52.562;13.418;2024-03-25T09:02:53;99437.00;;;12.10
22828;BMP180;11580;52.562;13.418;2024-03-25T09:05:19;99459.00;;;12.10
22828;BMP180;11580;52.562;13.418;2024-03-25T09:07:49;99462.00;;;12.20
22828;BMP180;11580;52.562;13.418;2024-03-25T09:10:16;99445.00;;;12.20
22828;BMP180;11580;52.562;13.418;2024-03-25T09:13:02;99464.00;;;12.20
22828;BMP180;11580;52.562;13.418;2024-03-25T09:15:29;99474.00;;;12.30
22828;BMP180;11580;52.562;13.418;2024-03-25T09:17:55;99473.00;;;12.30
22828;BMP180;11580;52.562;13.418;2024-03-25T09:20:21;99471.00;;;12.40
22828;BMP180;11580;52.562;13.418;2024-03-25T09:22:47;99481.00;;;12.50
22828;BMP180;11580;52.562;13.418;2024-03-25T09:25:14;99479.00;;;12.50
22828;BMP180;11580;52.562;13.418;2024-03-25T09:27:41;99481.00;;;12.60
22828;BMP180;11580;52.562;13.418;2024-03-25T09:30:09;99486.00;;;12.60
22828;BMP180;11580;52.562;13.418;2024-03-25T09:32:35;99490.00;;;12.60
22828;BMP180;11580;52.562;13.418;2024-03-25T09:35:01;99485.00;;;12.70
22828;BMP180;11580;52.562;13.418;2024-03-25T09:37:27;99494.00;;;12.70
22828;BMP180;11580;52.562;13.418;2024-03-25T09:39:54;99499.00;;;12.70
22828;BMP180;11580;52.562;13.418;2024-03-25T09:42:26;99487.00;;;12.70
22828;BMP180;11580;52.562;13.418;2024-03-25T09:44:55;99506.00;;;12.70
22828;BMP180;11580;52.562;13.418;2024-03-25T09:47:23;99503.00;;;12.80
22828;BMP180;11580;52.562;13.418;2024-03-25T09:49:51;99520.00;;;12.80
22828;BMP180;11580;52.562;13.418;2024-03-25T09:52:20;99509.00;;;12.80
22828;BMP180;11580;52.562;13.418;2024-03-25T09:54:46;99515.00;;;12.90
22828;BMP180;11580;52.562;13.418;2024-03-25T09:57:14;99521.00;;;12.80
22828;BMP180;11580;52.562;13.418;2024-03-25T09:59:40;99519.00;;;12.80
22828;BMP180;11580;52.562;13.418;2024-03-25T10:02:10;99521.00;;;12.90
22828;BMP180;11580;52.562;13.418;2024-03-25T10:04:44;99521.00;;;13.00
22828;BMP180;11580;52.562;13.418;2024-03-25T10:07:11;99523.00;;;13.10
22828;BMP180;11580;52.562;13.418;2024-03-25T10:09:37;99525.00;;;13.30
22828;BMP180;11580;52.562;13.418;2024-03-25T10:12:03;99519.00;;;13.50
22828;BMP180;11580;52.562;13.418;2024-03-25T10:14:30;99529.00;;;13.60
22828;BMP180;11580;52.562;13.418;2024-03-25T10:16:56;99539.00;;;13.70
22828;BMP180;11580;52.562;13.418;2024-03-25T10:19:22;99537.00;;;13.70
22828;BMP180;11580;52.562;13.418;2024-03-25T10:21:49;99546.00;;;13.80
22828;BMP180;11580;52.562;13.418;2024-03-25T10:24:17;99537.00;;;13.70
22828;BMP180;11580;52.562;13.418;2024-03-25T10:26:43;99541.00;;;13.70
22828;BMP180;11580;52.562;13.418;2024-03-25T10:29:10;99541.00;;;13.70
22828;BMP180;11580;52.562;13.418;2024-03-25T10:31:36;99540.00;;;13.70
22828;BMP180;11580;52.562;13.418;2024-03-25T10:34:04;99546.00;;;13.80
22828;BMP180;11580;52.562;13.418;2024-03-25T10:36:30;99541.00;;;13.90
22828;BMP180;11580;52.562;13.418;2024-03-25T10:39:02;99541.00;;;14.00
22828;BMP180;11580;52.562;13.418;2024-03-25T10:41:31;99547.00;;;14.10
22828;BMP180;11580;52.562;13.418;2024-03-25T10:44:01;99549.00;;;14.20
22828;BMP180;11580;52.562;13.418;2024-03-25T10:46:29;99553.00;;;14.30
22828;BMP180;11580;52.562;13.418;2024-03-25T10:49:07;99549.00;;;14.40
22828;BMP180;11580;52.562;13.418;2024-03-25T10:51:37;99557.00;;;14.50
22828;BMP180;11580;52.562;13.418;2024-03-25T10:54:06;99556.00;;;14.60
22828;BMP180;11580;52.562;13.418;2024-03-25T10:56:33;99561.00;;;14.70
22828;BMP180;11580;52.562;13.418;2024-03-25T10:59:01;99554.00;;;14.80
22828;BMP180;11580;52.562;13.418;2024-03-25T11:01:30;99549.00;;;14.90
22828;BMP180;11580;52.562;13.418;2024-03-25T11:03:57;99535.00;;;15.00
22828;BMP180;11580;52.562;13.418;2024-03-25T11:06:23;99556.00;;;15.00
22828;BMP180;11580;52.562;13.418;2024-03-25T11:08:56;99565.00;;;15.00
22828;BMP180;11580;52.562;13.418;2024-03-25T11:11:26;99571.00;;;15.00
22828;BMP180;11580;52.562;13.418;2024-03-25T11:13:56;99551.00;;;14.90
22828;BMP180;11580;52.562;13.418;2024-03-25T11:16:29;99561.00;;;14.90
22828;BMP180;11580;52.562;13.418;2024-03-25T11:19:01;99547.00;;;14.80
22828;BMP180;11580;52.562;13.418;2024-03-25T11:21:28;99562.00;;;14.70
22828;BMP180;11580;52.562;13.418;2024-03-25T11:23:54;99557.00;;;14.70
22828;BMP180;11580;52.562;13.418;2024-03-25T11:26:22;99555.00;;;14.70
22828;BMP180;11580;52.562;13.418;2024-03-25T11:28:51;99548.00;;;14.70
22828;BMP180;11580;52.562;13.418;2024-03-25T11:31:20;99549.00;;;14.80
22828;BMP180;11580;52.562;13.418;2024-03-25T11:33:47;99554.00;;;14.80
22828;BMP180;11580;52.562;13.418;2024-03-25T11:36:13;99552.00;;;14.80
22828;BMP180;11580;52.562;13.418;2024-03-25T11:38:39;99550.00;;;14.80
22828;BMP180;11580;52.562;13.418;2024-03-25T11:41:06;99544.00;;;14.80
22828;BMP180;11580;52.562;13.418;2024-03-25T11:43:33;99549.00;;;14.90
22828;BMP180;11580;52.562;13.418;2024-03-25T11:46:00;99552.00;;;15.00
22828;BMP180;11580;52.562;13.418;2024-03-25T11:48:29;99563.00;;;15.10
22828;BMP180;11580;52.562;13.418;2024-03-25T11:50:55;99561.00;;;15.20
22828;BMP180;11580;52.562;13.418;2024-03-25T11:53:21;99574.00;;;15.20
22828;BMP180;11580;52.562;13.418;2024-03-25T11:55:47;99571.00;;;15.30
22828;BMP180;11580;52.562;13.418;2024-03-25T11:58:14;99565.00;;;15.30
22828;BMP180;11580;52.562;13.418;2024-03-25T12:00:44;99566.00;;;15.40
22828;BMP180;11580;52.562;13.418;2024-03-25T12:03:14;99563.00;;;15.40
22828;BMP180;11580;52.562;13.418;2024-03-25T12:05:41;99563.00;;;15.40
22828;BMP180;11580;52.562;13.418;2024-03-25T12:08:08;99570.00;;;15.40
22828;BMP180;11580;52.562;13.418;2024-03-25T12:10:35;99563.00;;;15.40
22828;BMP180;11580;52.562;13.418;2024-03-25T12:13:19;99571.00;;;15.30
22828;BMP180;11580;52.562;13.418;2024-03-25T12:15:46;99570.00;;;15.30
22828;BMP180;11580;52.562;13.418;2024-03-25T12:18:15;99576.00;;;15.10
22828;BMP180;11580;52.562;13.418;2024-03-25T12:20:42;99565.00;;;15.00
22828;BMP180;11580;52.562;13.418;2024-03-25T12:23:10;99563.00;;;15.00
22828;BMP180;11580;52.562;13.418;2024-03-25T12:25:37;99555.00;;;15.00
22828;BMP180;11580;52.562;13.418;2024-03-25T12:28:08;99554.00;;;14.90
22828;BMP180;11580;52.562;13.418;2024-03-25T12:30:49;99564.00;;;14.90
22828;BMP180;11580;52.562;13.418;2024-03-25T12:33:17;99570.00;;;14.80
22828;BMP180;11580;52.562;13.418;2024-03-25T12:35:46;99552.00;;;14.70
22828;BMP180;11580;52.562;13.418;2024-03-25T12:38:25;99553.00;;;14.60
22828;BMP180;11580;52.562;13.418;2024-03-25T12:40:51;99563.00;;;14.50
22828;BMP180;11580;52.562;13.418;2024-03-25T12:43:18;99565.00;;;14.50
22828;BMP180;11580;52.562;13.418;2024-03-25T12:45:44;99560.00;;;14.40
22828;BMP180;11580;52.562;13.418;2024-03-25T12:48:10;99555.00;;;14.50
22828;BMP180;11580;52.562;13.418;2024-03-25T12:50:38;99561.00;;;14.60
22828;BMP180;11580;52.562;13.418;2024-03-25T12:53:04;99569.00;;;14.70
22828;BMP180;11580;52.562;13.418;2024-03-25T12:55:30;99573.00;;;14.80
22828;BMP180;11580;52.562;13.418;2024-03-25T12:57:56;99577.00;;;14.90
22828;BMP180;11580;52.562;13.418;2024-03-25T13:00:22;99577.00;;;15.00
22828;BMP180;11580;52.562;13.418;2024-03-25T13:02:49;99573.00;;;15.10
22828;BMP180;11580;52.562;13.418;2024-03-25T13:05:15;99579.00;;;15.30
22828;BMP180;11580;52.562;13.418;2024-03-25T13:07:43;99587.00;;;15.40
22828;BMP180;11580;52.562;13.418;2024-03-25T13:10:09;99583.00;;;15.40
22828;BMP180;11580;52.562;13.418;2024-03-25T13:12:35;99580.00;;;15.50
22828;BMP180;11580;52.562;13.418;2024-03-25T13:15:01;99582.00;;;15.50
22828;BMP180;11580;52.562;13.418;2024-03-25T13:17:27;99585.00;;;15.60
22828;BMP180;11580;52.562;13.418;2024-03-25T13:19:53;99577.00;;;15.60
22828;BMP180;11580;52.562;13.418;2024-03-25T13:22:19;99579.00;;;15.70
22828;BMP180;11580;52.562;13.418;2024-03-25T13:24:47;99590.00;;;15.80
22828;BMP180;11580;52.562;13.418;2024-03-25T13:27:13;99590.00;;;15.80
22828;BMP180;11580;52.562;13.418;2024-03-25T13:29:39;99593.00;;;15.80
22828;BMP180;11580;52.562;13.418;2024-03-25T13:32:05;99595.00;;;15.80
22828;BMP180;11580;52.562;13.418;2024-03-25T13:34:31;99591.00;;;15.80
22828;BMP180;11580;52.562;13.418;2024-03-25T13:36:57;99604.00;;;15.80
22828;BMP180;11580;52.562;13.418;2024-03-25T13:39:23;99596.00;;;15.70
22828;BMP180;11580;52.562;13.418;2024-03-25T13:41:51;99599.00;;;15.70
22828;BMP180;11580;52.562;13.418;2024-03-25T13:44:17;99594.00;;;15.80
22828;BMP180;11580;52.562;13.418;2024-03-25T13:46:43;99601.00;;;15.80
22828;BMP180;11580;52.562;13.418;2024-03-25T13:49:09;99598.00;;;15.90
22828;BMP180;11580;52.562;13.418;2024-03-25T13:51:35;99611.00;;;15.80
22828;BMP180;11580;52.562;13.418;2024-03-25T13:54:01;99596.00;;;15.90
22828;BMP180;11580;52.562;13.418;2024-03-25T13:56:28;99594.00;;;15.90